sensor_id;sensor_type;location;lat;lon;timestamp;P1;durP1;ratioP1;P2;durP2;ratioP2
37633;SDS011;32048;49.902;22.508;2022-10-31T00:01:00;15.90;;;9.32;;
37633;SDS011;32048;49.902;22.508;2022-10-31T00:03:39;15.00;;;8.80;;
37633;SDS011;32048;49.902;22.508;2022-10-31T00:06:05;17.95;;;10.07;;
37633;SDS011;32048;49.902;22.508;2022-10-31T00:08:33;17.17;;;8.93;;
37633;SDS011;32048;49.902;22.508;2022-10-31T00:10:59;15.27;;;9.85;;
37633;SDS011;32048;49.902;22.508;2022-10-31T00:13:26;14.98;;;8.90;;
37633;SDS011;32048;49.902;22.508;2022-10-31T00:15:53;15.85;;;9.95;;
37633;SDS011;32048;49.902;22.508;2022-10-31T00:18:20;16.05;;;9.18;;
37633;SDS011;32048;49.902;22.508;2022-10-31T00:20:47;14.45;;;8.77;;
37633;SDS011;32048;49.902;22.508;2022-10-31T00:23:14;15.57;;;9.13;;
37633;SDS011;32048;49.902;22.508;2022-10-31T00:25:41;18.98;;;9.45;;
37633;SDS011;32048;49.902;22.508;2022-10-31T00:28:08;14.50;;;8.93;;
37633;SDS011;32048;49.902;22.508;2022-10-31T00:30:38;14.18;;;8.18;;
37633;SDS011;32048;49.902;22.508;2022-10-31T00:33:05;16.02;;;9.30;;
37633;SDS011;32048;49.902;22.508;2022-10-31T00:35:32;11.85;;;8.30;;
37633;SDS011;32048;49.902;22.508;2022-10-31T00:37:59;15.30;;;8.32;;
37633;SDS011;32048;49.902;22.508;2022-10-31T00:40:26;17.27;;;9.18;;
37633;SDS011;32048;49.902;22.508;2022-10-31T00:42:53;14.32;;;8.73;;
37633;SDS011;32048;49.902;22.508;2022-10-31T00:45:20;14.65;;;8.75;;
37633;SDS011;32048;49.902;22.508;2022-10-31T00:47:47;12.68;;;8.40;;
37633;SDS011;32048;49.902;22.508;2022-10-31T00:50:14;14.15;;;8.98;;
37633;SDS011;32048;49.902;22.508;2022-10-31T00:52:41;14.98;;;8.32;;
37633;SDS011;32048;49.902;22.508;2022-10-31T00:55:07;13.95;;;8.65;;
37633;SDS011;32048;49.902;22.508;2022-10-31T00:57:34;13.15;;;8.10;;
37633;SDS011;32048;49.902;22.508;2022-10-31T01:00:02;16.17;;;10.00;;
37633;SDS011;32048;49.902;22.508;2022-10-31T01:02:29;20.90;;;8.77;;
37633;SDS011;32048;49.902;22.508;2022-10-31T01:04:56;16.60;;;10.07;;
37633;SDS011;32048;49.902;22.508;2022-10-31T01:07:23;14.98;;;8.68;;
37633;SDS011;32048;49.902;22.508;2022-10-31T01:09:50;16.52;;;8.77;;
37633;SDS011;32048;49.902;22.508;2022-10-31T01:12:17;15.95;;;7.40;;
37633;SDS011;32048;49.902;22.508;2022-10-31T01:14:44;17.35;;;9.48;;
37633;SDS011;32048;49.902;22.508;2022-10-31T01:17:12;16.92;;;8.70;;
37633;SDS011;32048;49.902;22.508;2022-10-31T01:19:40;13.52;;;7.57;;
37633;SDS011;32048;49.902;22.508;2022-10-31T01:22:07;14.73;;;8.32;;
37633;SDS011;32048;49.902;22.508;2022-10-31T01:24:33;14.18;;;7.50;;
37633;SDS011;32048;49.902;22.508;2022-10-31T01:27:00;14.75;;;8.07;;
37633;SDS011;32048;49.902;22.508;2022-10-31T01:29:27;14.50;;;8.18;;
37633;SDS011;32048;49.902;22.508;2022-10-31T01:31:54;14.80;;;7.55;;
37633;SDS011;32048;49.902;22.508;2022-10-31T01:34:21;14.55;;;8.20;;
37633;SDS011;32048;49.902;22.508;2022-10-31T01:36:48;15.23;;;8.30;;
37633;SDS011;32048;49.902;22.508;2022-10-31T01:39:18;14.23;;;7.55;;
37633;SDS011;32048;49.902;22.508;2022-10-31T01:41:49;12.35;;;8.10;;
37633;SDS011;32048;49.902;22.508;2022-10-31T01:46:46;12.73;;;8.50;;
37633;SDS011;32048;49.902;22.508;2022-10-31T01:52:36;16.35;;;8.05;;
37633;SDS011;32048;49.902;22.508;2022-10-31T01:55:11;13.93;;;7.35;;
37633;SDS011;32048;49.902;22.508;2022-10-31T01:57:42;17.48;;;8.70;;
37633;SDS011;32048;49.902;22.508;2022-10-31T02:00:13;19.40;;;8.48;;
37633;SDS011;32048;49.902;22.508;2022-10-31T02:02:41;13.90;;;7.88;;
37633;SDS011;32048;49.902;22.508;2022-10-31T02:05:10;12.27;;;8.55;;
37633;SDS011;32048;49.902;22.508;2022-10-31T02:10:33;12.90;;;7.45;;
37633;SDS011;32048;49.902;22.508;2022-10-31T02:13:03;16.13;;;10.70;;
37633;SDS011;32048;49.902;22.508;2022-10-31T02:15:32;15.05;;;8.30;;
37633;SDS011;32048;49.902;22.508;2022-10-31T02:17:59;16.65;;;8.63;;
37633;SDS011;32048;49.902;22.508;2022-10-31T02:20:29;15.60;;;8.82;;
37633;SDS011;32048;49.902;22.508;2022-10-31T02:35:21;12.77;;;8.27;;
37633;SDS011;32048;49.902;22.508;2022-10-31T02:37:54;14.43;;;8.60;;
37633;SDS011;32048;49.902;22.508;2022-10-31T02:43:40;15.30;;;8.50;;
37633;SDS011;32048;49.902;22.508;2022-10-31T02:48:44;15.45;;;9.50;;
37633;SDS011;32048;49.902;22.508;2022-10-31T02:51:14;13.40;;;8.77;;
37633;SDS011;32048;49.902;22.508;2022-10-31T02:53:42;16.35;;;9.32;;
37633;SDS011;32048;49.902;22.508;2022-10-31T02:56:13;15.85;;;9.07;;
37633;SDS011;32048;49.902;22.508;2022-10-31T02:58:49;16.83;;;8.60;;
37633;SDS011;32048;49.902;22.508;2022-10-31T03:10:04;14.10;;;8.05;;
37633;SDS011;32048;49.902;22.508;2022-10-31T03:12:39;17.60;;;9.50;;
37633;SDS011;32048;49.902;22.508;2022-10-31T03:15:17;18.83;;;9.45;;
37633;SDS011;32048;49.902;22.508;2022-10-31T03:21:01;14.77;;;8.07;;
37633;SDS011;32048;49.902;22.508;2022-10-31T03:23:34;17.58;;;7.90;;
37633;SDS011;32048;49.902;22.508;2022-10-31T03:26:04;14.73;;;7.57;;
37633;SDS011;32048;49.902;22.508;2022-10-31T03:28:36;13.18;;;7.53;;
37633;SDS011;32048;49.902;22.508;2022-10-31T03:31:07;14.52;;;8.23;;
37633;SDS011;32048;49.902;22.508;2022-10-31T03:33:36;15.68;;;8.52;;
37633;SDS011;32048;49.902;22.508;2022-10-31T03:36:05;15.45;;;8.65;;
37633;SDS011;32048;49.902;22.508;2022-10-31T03:38:37;13.80;;;8.85;;
37633;SDS011;32048;49.902;22.508;2022-10-31T03:41:07;14.85;;;7.97;;
37633;SDS011;32048;49.902;22.508;2022-10-31T03:43:40;15.57;;;8.82;;
37633;SDS011;32048;49.902;22.508;2022-10-31T03:46:12;16.58;;;8.07;;
37633;SDS011;32048;49.902;22.508;2022-10-31T03:48:39;13.32;;;8.20;;
37633;SDS011;32048;49.902;22.508;2022-10-31T03:53:34;13.20;;;8.27;;
37633;SDS011;32048;49.902;22.508;2022-10-31T04:01:47;13.30;;;7.35;;
37633;SDS011;32048;49.902;22.508;2022-10-31T04:04:19;12.43;;;8.02;;
37633;SDS011;32048;49.902;22.508;2022-10-31T04:06:46;16.55;;;7.30;;
37633;SDS011;32048;49.902;22.508;2022-10-31T04:09:15;16.90;;;8.20;;
37633;SDS011;32048;49.902;22.508;2022-10-31T04:11:51;19.17;;;7.80;;
37633;SDS011;32048;49.902;22.508;2022-10-31T04:14:21;12.77;;;8.48;;
37633;SDS011;32048;49.902;22.508;2022-10-31T04:16:51;13.43;;;8.30;;
37633;SDS011;32048;49.902;22.508;2022-10-31T04:19:19;13.60;;;7.63;;
37633;SDS011;32048;49.902;22.508;2022-10-31T04:21:45;14.57;;;8.35;;
37633;SDS011;32048;49.902;22.508;2022-10-31T04:24:12;14.45;;;8.13;;
37633;SDS011;32048;49.902;22.508;2022-10-31T04:26:39;13.85;;;8.60;;
37633;SDS011;32048;49.902;22.508;2022-10-31T04:29:06;12.70;;;7.68;;
37633;SDS011;32048;49.902;22.508;2022-10-31T04:31:33;12.85;;;7.75;;
37633;SDS011;32048;49.902;22.508;2022-10-31T04:34:00;15.23;;;7.95;;
37633;SDS011;32048;49.902;22.508;2022-10-31T04:36:27;16.85;;;8.95;;
37633;SDS011;32048;49.902;22.508;2022-10-31T04:38:54;15.30;;;9.23;;
37633;SDS011;32048;49.902;22.508;2022-10-31T04:41:20;16.70;;;8.95;;
37633;SDS011;32048;49.902;22.508;2022-10-31T04:43:47;12.50;;;7.85;;
37633;SDS011;32048;49.902;22.508;2022-10-31T04:46:14;17.63;;;9.13;;
37633;SDS011;32048;49.902;22.508;2022-10-31T04:48:41;11.27;;;8.00;;
37633;SDS011;32048;49.902;22.508;2022-10-31T04:51:08;13.02;;;7.65;;
37633;SDS011;32048;49.902;22.508;2022-10-31T04:53:35;16.40;;;8.40;;
37633;SDS011;32048;49.902;22.508;2022-10-31T04:56:02;12.77;;;8.55;;
37633;SDS011;32048;49.902;22.508;2022-10-31T04:58:29;14.15;;;7.72;;
37633;SDS011;32048;49.902;22.508;2022-10-31T05:00:56;17.65;;;8.77;;
37633;SDS011;32048;49.902;22.508;2022-10-31T05:03:23;13.00;;;7.68;;
37633;SDS011;32048;49.902;22.508;2022-10-31T05:05:50;17.05;;;7.32;;
37633;SDS011;32048;49.902;22.508;2022-10-31T05:08:17;12.45;;;7.57;;
37633;SDS011;32048;49.902;22.508;2022-10-31T05:10:44;14.68;;;7.82;;
37633;SDS011;32048;49.902;22.508;2022-10-31T05:13:11;14.07;;;7.55;;
37633;SDS011;32048;49.902;22.508;2022-10-31T05:15:38;13.80;;;6.82;;
37633;SDS011;32048;49.902;22.508;2022-10-31T05:18:04;14.02;;;7.50;;
37633;SDS011;32048;49.902;22.508;2022-10-31T05:20:31;13.95;;;7.05;;
37633;SDS011;32048;49.902;22.508;2022-10-31T05:22:58;12.20;;;7.40;;
37633;SDS011;32048;49.902;22.508;2022-10-31T05:25:27;11.70;;;6.97;;
37633;SDS011;32048;49.902;22.508;2022-10-31T05:27:55;12.27;;;6.43;;
37633;SDS011;32048;49.902;22.508;2022-10-31T05:30:24;12.13;;;6.20;;
37633;SDS011;32048;49.902;22.508;2022-10-31T05:32:53;12.68;;;6.60;;
37633;SDS011;32048;49.902;22.508;2022-10-31T05:35:25;14.90;;;6.70;;
37633;SDS011;32048;49.902;22.508;2022-10-31T05:37:56;10.38;;;7.00;;
37633;SDS011;32048;49.902;22.508;2022-10-31T05:40:24;9.98;;;5.97;;
37633;SDS011;32048;49.902;22.508;2022-10-31T05:42:53;8.32;;;5.60;;
37633;SDS011;32048;49.902;22.508;2022-10-31T05:45:21;11.15;;;5.25;;
37633;SDS011;32048;49.902;22.508;2022-10-31T05:47:52;10.27;;;5.38;;
37633;SDS011;32048;49.902;22.508;2022-10-31T05:50:25;9.68;;;4.57;;
37633;SDS011;32048;49.902;22.508;2022-10-31T05:53:03;8.55;;;4.38;;
37633;SDS011;32048;49.902;22.508;2022-10-31T05:55:32;7.82;;;3.97;;
37633;SDS011;32048;49.902;22.508;2022-10-31T05:57:59;7.05;;;4.00;;
37633;SDS011;32048;49.902;22.508;2022-10-31T06:00:27;6.75;;;4.60;;
37633;SDS011;32048;49.902;22.508;2022-10-31T06:02:58;7.65;;;4.10;;
37633;SDS011;32048;49.902;22.508;2022-10-31T06:05:26;5.63;;;3.50;;
37633;SDS011;32048;49.902;22.508;2022-10-31T06:07:54;6.10;;;3.83;;
37633;SDS011;32048;49.902;22.508;2022-10-31T06:10:21;8.00;;;4.05;;
37633;SDS011;32048;49.902;22.508;2022-10-31T06:12:48;5.53;;;4.07;;
37633;SDS011;32048;49.902;22.508;2022-10-31T06:15:15;8.65;;;4.45;;
37633;SDS011;32048;49.902;22.508;2022-10-31T06:18:02;8.40;;;3.97;;
37633;SDS011;32048;49.902;22.508;2022-10-31T06:20:31;6.53;;;4.00;;
37633;SDS011;32048;49.902;22.508;2022-10-31T06:22:58;5.53;;;3.58;;
37633;SDS011;32048;49.902;22.508;2022-10-31T06:25:26;7.68;;;3.33;;
37633;SDS011;32048;49.902;22.508;2022-10-31T06:27:54;6.53;;;3.42;;
37633;SDS011;32048;49.902;22.508;2022-10-31T06:30:21;6.38;;;4.05;;
37633;SDS011;32048;49.902;22.508;2022-10-31T06:32:48;5.70;;;3.20;;
37633;SDS011;32048;49.902;22.508;2022-10-31T06:35:16;7.20;;;3.22;;
37633;SDS011;32048;49.902;22.508;2022-10-31T06:37:50;5.10;;;3.55;;
37633;SDS011;32048;49.902;22.508;2022-10-31T06:40:17;5.40;;;3.22;;
37633;SDS011;32048;49.902;22.508;2022-10-31T06:42:44;7.57;;;3.78;;
37633;SDS011;32048;49.902;22.508;2022-10-31T06:45:11;7.07;;;3.78;;
37633;SDS011;32048;49.902;22.508;2022-10-31T06:47:38;6.07;;;3.55;;
37633;SDS011;32048;49.902;22.508;2022-10-31T06:50:25;5.72;;;2.78;;
37633;SDS011;32048;49.902;22.508;2022-10-31T06:52:52;3.50;;;2.33;;
37633;SDS011;32048;49.902;22.508;2022-10-31T06:55:21;4.38;;;2.70;;
37633;SDS011;32048;49.902;22.508;2022-10-31T06:57:49;5.40;;;2.78;;
37633;SDS011;32048;49.902;22.508;2022-10-31T07:00:18;4.80;;;2.70;;
37633;SDS011;32048;49.902;22.508;2022-10-31T07:05:26;3.42;;;2.55;;
37633;SDS011;32048;49.902;22.508;2022-10-31T07:07:54;5.63;;;2.80;;
37633;SDS011;32048;49.902;22.508;2022-10-31T07:10:23;4.05;;;2.63;;
37633;SDS011;32048;49.902;22.508;2022-10-31T07:12:55;4.40;;;2.40;;
37633;SDS011;32048;49.902;22.508;2022-10-31T07:15:24;6.85;;;2.42;;
37633;SDS011;32048;49.902;22.508;2022-10-31T07:17:52;4.82;;;2.85;;
37633;SDS011;32048;49.902;22.508;2022-10-31T07:20:19;4.65;;;2.47;;
37633;SDS011;32048;49.902;22.508;2022-10-31T07:22:46;7.43;;;3.08;;
37633;SDS011;32048;49.902;22.508;2022-10-31T07:25:16;5.78;;;2.63;;
37633;SDS011;32048;49.902;22.508;2022-10-31T07:27:43;4.22;;;2.08;;
37633;SDS011;32048;49.902;22.508;2022-10-31T07:30:10;6.80;;;2.92;;
37633;SDS011;32048;49.902;22.508;2022-10-31T07:35:10;4.60;;;2.33;;
37633;SDS011;32048;49.902;22.508;2022-10-31T07:37:38;4.13;;;2.67;;
37633;SDS011;32048;49.902;22.508;2022-10-31T07:40:06;4.40;;;2.05;;
37633;SDS011;32048;49.902;22.508;2022-10-31T07:42:37;5.53;;;2.45;;
37633;SDS011;32048;49.902;22.508;2022-10-31T07:45:06;3.17;;;2.30;;
37633;SDS011;32048;49.902;22.508;2022-10-31T07:50:06;2.30;;;1.90;;
37633;SDS011;32048;49.902;22.508;2022-10-31T07:52:34;4.75;;;2.30;;
37633;SDS011;32048;49.902;22.508;2022-10-31T07:55:01;4.97;;;2.72;;
37633;SDS011;32048;49.902;22.508;2022-10-31T07:57:28;3.47;;;2.10;;
37633;SDS011;32048;49.902;22.508;2022-10-31T08:00:00;5.90;;;2.50;;
37633;SDS011;32048;49.902;22.508;2022-10-31T08:02:27;4.47;;;2.35;;
37633;SDS011;32048;49.902;22.508;2022-10-31T08:04:54;3.67;;;2.17;;
37633;SDS011;32048;49.902;22.508;2022-10-31T08:07:26;3.65;;;1.85;;
37633;SDS011;32048;49.902;22.508;2022-10-31T08:09:54;4.93;;;2.53;;
37633;SDS011;32048;49.902;22.508;2022-10-31T08:12:22;5.18;;;2.17;;
37633;SDS011;32048;49.902;22.508;2022-10-31T08:14:49;5.55;;;2.10;;
37633;SDS011;32048;49.902;22.508;2022-10-31T08:17:16;5.82;;;2.50;;
37633;SDS011;32048;49.902;22.508;2022-10-31T08:19:43;4.07;;;2.60;;
37633;SDS011;32048;49.902;22.508;2022-10-31T08:22:10;5.05;;;2.30;;
37633;SDS011;32048;49.902;22.508;2022-10-31T08:24:37;4.22;;;2.40;;
37633;SDS011;32048;49.902;22.508;2022-10-31T08:27:05;5.63;;;2.45;;
37633;SDS011;32048;49.902;22.508;2022-10-31T08:29:32;4.65;;;1.85;;
37633;SDS011;32048;49.902;22.508;2022-10-31T08:31:58;4.90;;;2.28;;
37633;SDS011;32048;49.902;22.508;2022-10-31T08:34:25;4.47;;;2.50;;
37633;SDS011;32048;49.902;22.508;2022-10-31T08:36:52;2.58;;;2.20;;
37633;SDS011;32048;49.902;22.508;2022-10-31T08:39:19;4.50;;;2.15;;
37633;SDS011;32048;49.902;22.508;2022-10-31T08:41:46;5.28;;;2.10;;
37633;SDS011;32048;49.902;22.508;2022-10-31T08:44:13;3.45;;;2.28;;
37633;SDS011;32048;49.902;22.508;2022-10-31T08:46:40;4.63;;;3.00;;
37633;SDS011;32048;49.902;22.508;2022-10-31T08:49:07;6.35;;;2.20;;
37633;SDS011;32048;49.902;22.508;2022-10-31T08:51:33;4.30;;;2.50;;
37633;SDS011;32048;49.902;22.508;2022-10-31T08:54:01;3.20;;;2.13;;
37633;SDS011;32048;49.902;22.508;2022-10-31T08:56:27;3.35;;;2.38;;
37633;SDS011;32048;49.902;22.508;2022-10-31T08:58:54;7.05;;;2.33;;
37633;SDS011;32048;49.902;22.508;2022-10-31T09:01:21;3.92;;;2.30;;
37633;SDS011;32048;49.902;22.508;2022-10-31T09:03:48;2.85;;;2.10;;
37633;SDS011;32048;49.902;22.508;2022-10-31T09:06:15;4.60;;;2.28;;
37633;SDS011;32048;49.902;22.508;2022-10-31T09:08:42;8.75;;;3.05;;
37633;SDS011;32048;49.902;22.508;2022-10-31T09:11:09;4.63;;;2.63;;
37633;SDS011;32048;49.902;22.508;2022-10-31T09:13:36;8.27;;;2.28;;
37633;SDS011;32048;49.902;22.508;2022-10-31T09:16:07;7.53;;;2.88;;
37633;SDS011;32048;49.902;22.508;2022-10-31T09:18:34;5.35;;;2.50;;
37633;SDS011;32048;49.902;22.508;2022-10-31T09:21:01;5.72;;;2.60;;
37633;SDS011;32048;49.902;22.508;2022-10-31T09:23:28;7.15;;;2.78;;
37633;SDS011;32048;49.902;22.508;2022-10-31T09:25:55;4.15;;;2.50;;
37633;SDS011;32048;49.902;22.508;2022-10-31T09:28:22;7.43;;;2.80;;
37633;SDS011;32048;49.902;22.508;2022-10-31T09:30:51;13.48;;;9.32;;
37633;SDS011;32048;49.902;22.508;2022-10-31T09:33:19;7.68;;;2.80;;
37633;SDS011;32048;49.902;22.508;2022-10-31T09:35:46;7.22;;;2.42;;
37633;SDS011;32048;49.902;22.508;2022-10-31T09:38:15;5.10;;;2.72;;
37633;SDS011;32048;49.902;22.508;2022-10-31T09:40:47;6.15;;;2.80;;
37633;SDS011;32048;49.902;22.508;2022-10-31T09:46:13;8.32;;;2.72;;
37633;SDS011;32048;49.902;22.508;2022-10-31T09:52:00;3.92;;;2.70;;
37633;SDS011;32048;49.902;22.508;2022-10-31T09:54:52;6.25;;;3.35;;
37633;SDS011;32048;49.902;22.508;2022-10-31T09:57:29;6.10;;;3.30;;
37633;SDS011;32048;49.902;22.508;2022-10-31T10:00:00;6.85;;;3.10;;
37633;SDS011;32048;49.902;22.508;2022-10-31T10:02:32;6.97;;;2.90;;
37633;SDS011;32048;49.902;22.508;2022-10-31T10:05:05;5.88;;;2.72;;
37633;SDS011;32048;49.902;22.508;2022-10-31T10:10:28;6.22;;;2.58;;
37633;SDS011;32048;49.902;22.508;2022-10-31T10:16:06;7.05;;;3.30;;
37633;SDS011;32048;49.902;22.508;2022-10-31T10:21:31;7.45;;;3.20;;
37633;SDS011;32048;49.902;22.508;2022-10-31T10:26:53;6.20;;;2.70;;
37633;SDS011;32048;49.902;22.508;2022-10-31T10:31:55;9.07;;;3.88;;
37633;SDS011;32048;49.902;22.508;2022-10-31T10:34:33;9.43;;;3.90;;
37633;SDS011;32048;49.902;22.508;2022-10-31T10:39:46;5.65;;;3.05;;
37633;SDS011;32048;49.902;22.508;2022-10-31T10:42:18;6.32;;;3.25;;
37633;SDS011;32048;49.902;22.508;2022-10-31T10:45:13;8.68;;;3.38;;
37633;SDS011;32048;49.902;22.508;2022-10-31T10:51:16;8.18;;;3.53;;
37633;SDS011;32048;49.902;22.508;2022-10-31T10:56:52;7.90;;;3.75;;
37633;SDS011;32048;49.902;22.508;2022-10-31T10:59:21;10.87;;;3.40;;
37633;SDS011;32048;49.902;22.508;2022-10-31T11:01:49;6.97;;;3.28;;
37633;SDS011;32048;49.902;22.508;2022-10-31T11:04:34;9.85;;;3.63;;
37633;SDS011;32048;49.902;22.508;2022-10-31T11:07:06;6.05;;;3.70;;
37633;SDS011;32048;49.902;22.508;2022-10-31T11:09:35;9.23;;;4.28;;
37633;SDS011;32048;49.902;22.508;2022-10-31T11:12:21;8.15;;;4.00;;
37633;SDS011;32048;49.902;22.508;2022-10-31T11:17:26;5.55;;;3.38;;
37633;SDS011;32048;49.902;22.508;2022-10-31T11:22:45;8.38;;;3.60;;
37633;SDS011;32048;49.902;22.508;2022-10-31T11:27:46;5.68;;;3.40;;
37633;SDS011;32048;49.902;22.508;2022-10-31T11:30:14;8.88;;;3.63;;
37633;SDS011;32048;49.902;22.508;2022-10-31T11:32:46;5.90;;;3.63;;
37633;SDS011;32048;49.902;22.508;2022-10-31T11:35:18;10.52;;;3.67;;
37633;SDS011;32048;49.902;22.508;2022-10-31T11:37:48;6.28;;;3.42;;
37633;SDS011;32048;49.902;22.508;2022-10-31T11:40:24;5.70;;;3.03;;
37633;SDS011;32048;49.902;22.508;2022-10-31T11:42:52;16.08;;;5.47;;
37633;SDS011;32048;49.902;22.508;2022-10-31T11:47:50;10.48;;;3.47;;
37633;SDS011;32048;49.902;22.508;2022-10-31T11:50:27;5.78;;;3.63;;
37633;SDS011;32048;49.902;22.508;2022-10-31T11:52:59;17.17;;;4.53;;
37633;SDS011;32048;49.902;22.508;2022-10-31T11:55:34;6.85;;;3.47;;
37633;SDS011;32048;49.902;22.508;2022-10-31T11:58:04;9.82;;;3.60;;
37633;SDS011;32048;49.902;22.508;2022-10-31T12:00:33;13.60;;;3.87;;
37633;SDS011;32048;49.902;22.508;2022-10-31T12:08:22;8.32;;;3.65;;
37633;SDS011;32048;49.902;22.508;2022-10-31T12:22:12;8.73;;;4.00;;
37633;SDS011;32048;49.902;22.508;2022-10-31T12:38:20;8.95;;;3.42;;
37633;SDS011;32048;49.902;22.508;2022-10-31T12:52:24;7.30;;;3.47;;
37633;SDS011;32048;49.902;22.508;2022-10-31T12:55:06;11.68;;;3.83;;
37633;SDS011;32048;49.902;22.508;2022-10-31T12:57:49;8.88;;;3.17;;
37633;SDS011;32048;49.902;22.508;2022-10-31T13:00:25;11.25;;;4.55;;
37633;SDS011;32048;49.902;22.508;2022-10-31T13:03:17;8.07;;;4.45;;
37633;SDS011;32048;49.902;22.508;2022-10-31T13:05:46;9.02;;;4.22;;
37633;SDS011;32048;49.902;22.508;2022-10-31T13:08:26;8.00;;;3.90;;
37633;SDS011;32048;49.902;22.508;2022-10-31T13:11:08;8.77;;;4.13;;
37633;SDS011;32048;49.902;22.508;2022-10-31T13:18:48;9.38;;;3.95;;
37633;SDS011;32048;49.902;22.508;2022-10-31T13:21:21;9.48;;;4.60;;
37633;SDS011;32048;49.902;22.508;2022-10-31T13:23:52;8.25;;;4.70;;
37633;SDS011;32048;49.902;22.508;2022-10-31T13:29:33;8.00;;;4.07;;
37633;SDS011;32048;49.902;22.508;2022-10-31T13:32:06;11.82;;;5.40;;
37633;SDS011;32048;49.902;22.508;2022-10-31T13:34:36;11.15;;;3.92;;
37633;SDS011;32048;49.902;22.508;2022-10-31T13:39:56;11.30;;;4.28;;
37633;SDS011;32048;49.902;22.508;2022-10-31T13:42:49;7.60;;;4.38;;
37633;SDS011;32048;49.902;22.508;2022-10-31T13:45:22;7.65;;;3.70;;
37633;SDS011;32048;49.902;22.508;2022-10-31T13:50:33;13.70;;;4.25;;
37633;SDS011;32048;49.902;22.508;2022-10-31T13:53:09;10.55;;;4.00;;
37633;SDS011;32048;49.902;22.508;2022-10-31T14:00:58;12.23;;;4.28;;
37633;SDS011;32048;49.902;22.508;2022-10-31T14:03:25;6.47;;;4.07;;
37633;SDS011;32048;49.902;22.508;2022-10-31T14:08:47;10.85;;;3.90;;
37633;SDS011;32048;49.902;22.508;2022-10-31T14:11:22;10.57;;;4.38;;
37633;SDS011;32048;49.902;22.508;2022-10-31T14:14:01;58.65;;;28.48;;
37633;SDS011;32048;49.902;22.508;2022-10-31T14:16:29;350.13;;;150.55;;
37633;SDS011;32048;49.902;22.508;2022-10-31T14:18:59;27.00;;;13.07;;
37633;SDS011;32048;49.902;22.508;2022-10-31T14:21:29;21.95;;;12.20;;
37633;SDS011;32048;49.902;22.508;2022-10-31T14:24:02;23.13;;;13.07;;
37633;SDS011;32048;49.902;22.508;2022-10-31T14:27:01;28.30;;;13.15;;
37633;SDS011;32048;49.902;22.508;2022-10-31T14:29:31;436.10;;;187.75;;
37633;SDS011;32048;49.902;22.508;2022-10-31T14:34:38;29.13;;;17.33;;
37633;SDS011;32048;49.902;22.508;2022-10-31T14:51:38;116.07;;;57.25;;
37633;SDS011;32048;49.902;22.508;2022-10-31T14:54:10;65.13;;;32.50;;
37633;SDS011;32048;49.902;22.508;2022-10-31T14:56:49;52.65;;;25.88;;
37633;SDS011;32048;49.902;22.508;2022-10-31T14:59:21;52.47;;;23.70;;
37633;SDS011;32048;49.902;22.508;2022-10-31T15:01:56;37.60;;;21.95;;
37633;SDS011;32048;49.902;22.508;2022-10-31T15:04:26;94.43;;;43.35;;
37633;SDS011;32048;49.902;22.508;2022-10-31T15:07:12;162.65;;;75.55;;
37633;SDS011;32048;49.902;22.508;2022-10-31T15:09:56;76.00;;;45.25;;
37633;SDS011;32048;49.902;22.508;2022-10-31T15:12:27;77.63;;;41.58;;
37633;SDS011;32048;49.902;22.508;2022-10-31T15:14:55;73.65;;;38.47;;
37633;SDS011;32048;49.902;22.508;2022-10-31T15:17:23;88.45;;;39.42;;
37633;SDS011;32048;49.902;22.508;2022-10-31T15:19:51;128.07;;;59.10;;
37633;SDS011;32048;49.902;22.508;2022-10-31T15:22:20;127.80;;;61.35;;
37633;SDS011;32048;49.902;22.508;2022-10-31T15:24:49;85.65;;;43.95;;
37633;SDS011;32048;49.902;22.508;2022-10-31T15:27:23;98.47;;;52.78;;
37633;SDS011;32048;49.902;22.508;2022-10-31T15:29:51;86.50;;;54.72;;
37633;SDS011;32048;49.902;22.508;2022-10-31T15:32:24;73.03;;;39.08;;
37633;SDS011;32048;49.902;22.508;2022-10-31T15:34:55;91.07;;;45.25;;
37633;SDS011;32048;49.902;22.508;2022-10-31T15:37:24;135.30;;;62.95;;
37633;SDS011;32048;49.902;22.508;2022-10-31T15:39:52;113.10;;;57.78;;
37633;SDS011;32048;49.902;22.508;2022-10-31T15:42:24;124.72;;;61.72;;
37633;SDS011;32048;49.902;22.508;2022-10-31T15:45:16;150.63;;;82.35;;
37633;SDS011;32048;49.902;22.508;2022-10-31T15:47:53;125.50;;;69.65;;
37633;SDS011;32048;49.902;22.508;2022-10-31T15:53:01;150.10;;;74.70;;
37633;SDS011;32048;49.902;22.508;2022-10-31T15:55:30;155.70;;;77.82;;
37633;SDS011;32048;49.902;22.508;2022-10-31T15:58:09;156.23;;;82.28;;
37633;SDS011;32048;49.902;22.508;2022-10-31T16:00:38;161.43;;;86.68;;
37633;SDS011;32048;49.902;22.508;2022-10-31T16:03:06;149.20;;;78.38;;
37633;SDS011;32048;49.902;22.508;2022-10-31T16:05:46;158.95;;;78.32;;
37633;SDS011;32048;49.902;22.508;2022-10-31T16:08:22;128.80;;;72.25;;
37633;SDS011;32048;49.902;22.508;2022-10-31T16:10:50;181.80;;;90.55;;
37633;SDS011;32048;49.902;22.508;2022-10-31T16:13:18;282.10;;;154.32;;
37633;SDS011;32048;49.902;22.508;2022-10-31T16:15:51;257.95;;;140.25;;
37633;SDS011;32048;49.902;22.508;2022-10-31T16:18:42;289.17;;;146.35;;
37633;SDS011;32048;49.902;22.508;2022-10-31T16:21:09;173.57;;;91.80;;
37633;SDS011;32048;49.902;22.508;2022-10-31T16:23:38;180.95;;;93.95;;
37633;SDS011;32048;49.902;22.508;2022-10-31T16:26:13;234.80;;;123.40;;
37633;SDS011;32048;49.902;22.508;2022-10-31T16:28:51;172.20;;;84.15;;
37633;SDS011;32048;49.902;22.508;2022-10-31T16:31:35;138.50;;;81.53;;
37633;SDS011;32048;49.902;22.508;2022-10-31T16:34:05;138.38;;;77.22;;
37633;SDS011;32048;49.902;22.508;2022-10-31T16:36:40;159.27;;;83.30;;
37633;SDS011;32048;49.902;22.508;2022-10-31T16:39:08;147.35;;;74.70;;
37633;SDS011;32048;49.902;22.508;2022-10-31T16:41:35;128.00;;;67.40;;
37633;SDS011;32048;49.902;22.508;2022-10-31T16:44:22;133.10;;;75.43;;
37633;SDS011;32048;49.902;22.508;2022-10-31T16:47:12;143.35;;;77.85;;
37633;SDS011;32048;49.902;22.508;2022-10-31T16:49:42;125.13;;;73.10;;
37633;SDS011;32048;49.902;22.508;2022-10-31T16:52:09;140.20;;;79.00;;
37633;SDS011;32048;49.902;22.508;2022-10-31T16:54:37;135.30;;;74.88;;
37633;SDS011;32048;49.902;22.508;2022-10-31T16:57:04;147.05;;;85.82;;
37633;SDS011;32048;49.902;22.508;2022-10-31T16:59:32;122.25;;;74.30;;
37633;SDS011;32048;49.902;22.508;2022-10-31T17:02:01;169.77;;;100.55;;
37633;SDS011;32048;49.902;22.508;2022-10-31T17:04:30;115.32;;;66.90;;
37633;SDS011;32048;49.902;22.508;2022-10-31T17:06:57;185.05;;;93.90;;
37633;SDS011;32048;49.902;22.508;2022-10-31T17:09:24;229.30;;;113.63;;
37633;SDS011;32048;49.902;22.508;2022-10-31T17:11:51;159.48;;;78.22;;
37633;SDS011;32048;49.902;22.508;2022-10-31T17:14:19;196.73;;;106.05;;
37633;SDS011;32048;49.902;22.508;2022-10-31T17:16:47;140.38;;;75.93;;
37633;SDS011;32048;49.902;22.508;2022-10-31T17:19:14;177.73;;;128.70;;
37633;SDS011;32048;49.902;22.508;2022-10-31T17:21:41;128.75;;;74.65;;
37633;SDS011;32048;49.902;22.508;2022-10-31T17:36:17;121.50;;;72.15;;
37633;SDS011;32048;49.902;22.508;2022-10-31T17:38:45;102.30;;;59.60;;
37633;SDS011;32048;49.902;22.508;2022-10-31T17:41:11;97.13;;;51.33;;
37633;SDS011;32048;49.902;22.508;2022-10-31T17:43:39;104.53;;;55.95;;
37633;SDS011;32048;49.902;22.508;2022-10-31T17:46:06;74.45;;;45.33;;
37633;SDS011;32048;49.902;22.508;2022-10-31T17:48:34;82.20;;;46.58;;